Terminal Aerodrome Forecast
Issued by NWS Key West, FL

Home | Current Version | Previous Version | Text Only | Print | Product List | Glossary On
Versions: 1 2 3 4 5 6 7 8 9 10 11 12 13 14 15 16 17 18
000
FTUS42 KKEY 250500
TAFEYW
TAF
KEYW 250522Z 2506/2606 13006KT P6SM FEW026 SCT060
     FM251000 13006KT P6SM SCT026 BKN060
     FM251500 16006KT P6SM FEW026 SCT060
     FM252100 VRB04KT P6SM FEW026=

USA.gov is the U.S. government's official web portal to all federal, state and local government web resources and services.